createdAt,value
2018-03-17T00:00:46.203Z,0.00
2018-03-17T00:01:46.100Z,0.00
2018-03-17T00:02:45.984Z,0.00
2018-03-17T00:03:45.885Z,0.00
2018-03-17T00:04:45.778Z,0.00
2018-03-17T00:05:45.677Z,0.00
2018-03-17T00:06:45.560Z,0.00
2018-03-17T00:07:45.449Z,0.00
2018-03-17T00:08:45.344Z,0.00
2018-03-17T00:09:45.225Z,0.00
2018-03-17T00:10:45.119Z,0.00
2018-03-17T00:11:45.005Z,0.00
2018-03-17T00:12:44.901Z,0.00
2018-03-17T00:13:44.784Z,0.00
2018-03-17T00:14:44.680Z,0.00
2018-03-17T00:15:44.566Z,0.00
2018-03-17T00:16:44.462Z,0.00
2018-03-17T00:17:44.360Z,0.00
2018-03-17T00:18:44.243Z,0.00
2018-03-17T00:19:44.140Z,0.00
2018-03-17T00:20:44.028Z,0.00
2018-03-17T00:21:43.921Z,0.00
2018-03-17T00:22:44.057Z,0.00
2018-03-17T00:23:43.701Z,0.00
2018-03-17T00:24:43.594Z,0.00
2018-03-17T00:25:43.482Z,0.00
2018-03-17T00:26:43.416Z,0.00
2018-03-17T00:27:43.264Z,0.00
2018-03-17T00:28:43.151Z,0.00
2018-03-17T00:29:43.048Z,0.00
2018-03-17T00:30:42.929Z,0.00
2018-03-17T00:31:42.825Z,0.00
2018-03-17T00:32:42.714Z,0.00
2018-03-17T00:33:42.613Z,0.00
2018-03-17T00:34:42.490Z,0.00
2018-03-17T00:35:42.390Z,0.00
2018-03-17T00:36:42.286Z,0.00
2018-03-17T00:37:42.172Z,0.00
2018-03-17T00:38:42.053Z,0.00
2018-03-17T00:39:41.952Z,0.00
2018-03-17T00:40:41.844Z,0.00
2018-03-17T00:41:41.729Z,0.00
2018-03-17T00:42:41.625Z,0.00
2018-03-17T00:43:41.509Z,0.00
2018-03-17T00:44:41.409Z,0.00
2018-03-17T00:45:41.291Z,0.00
2018-03-17T00:46:41.188Z,0.00
2018-03-17T00:47:41.076Z,0.00
2018-03-17T00:48:40.968Z,0.00
2018-03-17T00:49:40.855Z,0.00
2018-03-17T00:50:40.757Z,0.00
2018-03-17T00:51:40.634Z,0.00
2018-03-17T00:52:40.533Z,0.00
2018-03-17T00:53:40.418Z,0.00
2018-03-17T00:54:40.310Z,0.00
2018-03-17T00:55:40.196Z,0.00
2018-03-17T00:56:40.093Z,0.00
2018-03-17T00:57:39.981Z,0.00
2018-03-17T00:58:39.872Z,0.00
2018-03-17T00:59:39.758Z,0.00
2018-03-17T01:00:39.659Z,0.00
2018-03-17T01:01:39.542Z,0.00
2018-03-17T01:02:39.438Z,0.00
2018-03-17T01:03:39.317Z,0.00
2018-03-17T01:04:39.214Z,0.00
2018-03-17T01:05:39.103Z,0.00
2018-03-17T01:06:38.996Z,0.00
2018-03-17T01:07:38.887Z,0.00
2018-03-17T01:08:38.778Z,0.00
2018-03-17T01:09:38.665Z,0.00
2018-03-17T01:10:38.558Z,0.00
2018-03-17T01:11:38.447Z,0.00
2018-03-17T01:12:38.351Z,0.00
2018-03-17T01:13:38.227Z,0.00
2018-03-17T01:14:38.120Z,0.00
2018-03-17T01:15:38.004Z,0.00
2018-03-17T01:16:37.900Z,0.00
2018-03-17T01:17:38.037Z,0.00
2018-03-17T01:18:37.687Z,0.00
2018-03-17T01:19:37.565Z,0.00
2018-03-17T01:20:37.463Z,0.00
2018-03-17T01:21:37.347Z,0.00
2018-03-17T01:22:37.245Z,0.00
2018-03-17T01:23:37.131Z,0.00
2018-03-17T01:24:37.027Z,0.00
2018-03-17T01:25:36.912Z,0.00
2018-03-17T01:26:36.805Z,0.00
2018-03-17T01:27:36.989Z,0.00
2018-03-17T01:28:36.590Z,0.00
2018-03-17T01:29:36.476Z,0.00
2018-03-17T01:30:36.371Z,0.00
2018-03-17T01:31:36.255Z,0.00
2018-03-17T01:32:36.147Z,0.00
2018-03-17T01:33:36.031Z,0.00
2018-03-17T01:34:35.932Z,0.00
2018-03-17T01:35:35.815Z,0.00
2018-03-17T01:36:35.712Z,0.00
2018-03-17T01:37:35.594Z,0.00
2018-03-17T01:38:35.478Z,0.00
2018-03-17T01:39:35.379Z,0.00
2018-03-17T01:40:35.263Z,0.00
2018-03-17T01:41:35.156Z,0.00
2018-03-17T01:42:35.039Z,0.00
2018-03-17T01:43:34.940Z,0.00
2018-03-17T01:44:34.824Z,0.00
2018-03-17T01:45:34.722Z,0.00
2018-03-17T01:46:34.605Z,0.00
2018-03-17T01:47:34.746Z,0.00
2018-03-17T01:48:34.382Z,0.00
2018-03-17T01:49:34.280Z,0.00
2018-03-17T01:50:34.170Z,0.00
2018-03-17T01:51:34.059Z,0.00
2018-03-17T01:52:33.947Z,0.00
2018-03-17T01:53:33.840Z,0.00
2018-03-17T01:54:33.724Z,0.00
2018-03-17T01:55:33.625Z,0.00
2018-03-17T01:56:33.507Z,0.00
2018-03-17T01:57:33.391Z,0.00
2018-03-17T01:58:33.299Z,0.00
2018-03-17T01:59:33.173Z,0.00
2018-03-17T02:00:33.067Z,0.00
2018-03-17T02:01:32.950Z,0.00
2018-03-17T02:02:32.850Z,0.00
2018-03-17T02:03:32.736Z,0.00
2018-03-17T02:04:32.630Z,0.00
2018-03-17T02:05:32.512Z,0.00
2018-03-17T02:06:32.410Z,0.00
2018-03-17T02:07:32.296Z,0.00
2018-03-17T02:08:32.190Z,0.00
2018-03-17T02:09:32.078Z,0.00
2018-03-17T02:10:31.960Z,0.00
2018-03-17T02:11:31.859Z,0.00
2018-03-17T02:12:31.741Z,0.00
2018-03-17T02:13:31.636Z,0.00
2018-03-17T02:14:31.520Z,0.00
2018-03-17T02:15:31.423Z,0.00
2018-03-17T02:16:31.305Z,0.00
2018-03-17T02:17:31.200Z,0.00
2018-03-17T02:18:31.088Z,0.00
2018-03-17T02:19:30.984Z,0.00
2018-03-17T02:20:30.866Z,0.00
2018-03-17T02:21:30.751Z,0.00
2018-03-17T02:22:30.645Z,0.00
2018-03-17T02:23:30.532Z,0.00
2018-03-17T02:24:30.424Z,0.00
2018-03-17T02:25:30.310Z,0.00
2018-03-17T02:26:30.207Z,0.00
2018-03-17T02:27:30.095Z,0.00
2018-03-17T02:28:29.986Z,0.00
2018-03-17T02:29:29.873Z,0.00
2018-03-17T02:30:29.759Z,0.00
2018-03-17T02:31:29.653Z,0.00
2018-03-17T02:32:29.538Z,0.00
2018-03-17T02:33:29.433Z,0.00
2018-03-17T02:34:29.317Z,0.00
2018-03-17T02:35:29.213Z,0.00
2018-03-17T02:36:29.101Z,0.00
2018-03-17T02:37:28.996Z,0.00
2018-03-17T02:38:28.882Z,0.00
2018-03-17T02:39:28.776Z,0.00
2018-03-17T02:40:28.660Z,0.00
2018-03-17T02:41:28.548Z,0.00
2018-03-17T02:42:28.444Z,0.00
2018-03-17T02:43:28.324Z,0.00
2018-03-17T02:44:28.222Z,0.00
2018-03-17T02:45:28.106Z,0.00
2018-03-17T02:46:28.017Z,0.00
2018-03-17T02:47:27.888Z,0.00
2018-03-17T02:48:27.787Z,0.00
2018-03-17T02:49:27.682Z,0.00
2018-03-17T02:50:27.569Z,0.00
2018-03-17T02:51:27.450Z,0.00
2018-03-17T02:52:27.338Z,0.00
2018-03-17T02:53:27.233Z,0.00
2018-03-17T02:54:27.118Z,0.00
2018-03-17T02:55:27.011Z,0.00
2018-03-17T02:56:26.897Z,0.00
2018-03-17T02:57:27.095Z,0.00
2018-03-17T02:58:26.679Z,0.00
2018-03-17T02:59:26.573Z,0.00
2018-03-17T03:00:26.458Z,0.00
2018-03-17T03:01:26.344Z,0.00
2018-03-17T03:02:26.235Z,0.00
2018-03-17T03:03:26.125Z,0.00
2018-03-17T03:04:26.018Z,0.00
2018-03-17T03:05:25.905Z,0.00
2018-03-17T03:06:25.804Z,0.00
2018-03-17T03:07:25.686Z,0.00
2018-03-17T03:08:25.578Z,0.00
2018-03-17T03:09:25.468Z,0.00
2018-03-17T03:10:25.350Z,0.00
2018-03-17T03:11:25.244Z,0.00
2018-03-17T03:12:25.130Z,0.00
2018-03-17T03:13:25.025Z,0.00
2018-03-17T03:14:24.909Z,0.00
2018-03-17T03:15:24.811Z,0.00
2018-03-17T03:16:24.693Z,0.00
2018-03-17T03:17:24.591Z,0.00
2018-03-17T03:18:24.470Z,0.00
2018-03-17T03:19:24.372Z,0.00
2018-03-17T03:20:24.252Z,0.00
2018-03-17T03:21:24.138Z,0.00
2018-03-17T03:22:24.036Z,0.00
2018-03-17T03:23:23.917Z,0.00
2018-03-17T03:24:23.818Z,0.00
2018-03-17T03:25:23.698Z,0.00
2018-03-17T03:26:23.598Z,0.00
2018-03-17T03:27:23.733Z,0.00
2018-03-17T03:28:23.375Z,0.00
2018-03-17T03:29:23.259Z,0.00
2018-03-17T03:30:23.145Z,0.00
2018-03-17T03:31:23.046Z,0.00
2018-03-17T03:32:22.924Z,0.00
2018-03-17T03:33:22.825Z,0.00
2018-03-17T03:34:22.753Z,0.00
2018-03-17T03:35:22.604Z,0.00
2018-03-17T03:36:22.486Z,0.00
2018-03-17T03:37:22.375Z,0.00
2018-03-17T03:38:22.272Z,0.00
2018-03-17T03:39:22.151Z,0.00
2018-03-17T03:40:22.047Z,0.00
2018-03-17T03:41:21.933Z,0.00
2018-03-17T03:42:22.080Z,0.00
2018-03-17T03:43:21.713Z,0.00
2018-03-17T03:44:21.610Z,0.00
2018-03-17T03:45:21.497Z,0.00
2018-03-17T03:46:21.379Z,0.00
2018-03-17T03:47:21.291Z,0.00
2018-03-17T03:48:21.158Z,0.00
2018-03-17T03:49:21.059Z,0.00
2018-03-17T03:50:20.956Z,0.00
2018-03-17T03:51:20.839Z,0.00
2018-03-17T03:52:20.720Z,0.00
2018-03-17T03:53:20.605Z,0.00
2018-03-17T03:54:20.505Z,0.00
2018-03-17T03:55:20.389Z,0.00
2018-03-17T03:56:20.283Z,0.00
2018-03-17T03:57:20.170Z,0.00
2018-03-17T03:58:20.067Z,0.00
2018-03-17T03:59:19.953Z,0.00
2018-03-17T04:00:19.833Z,0.00
2018-03-17T04:01:19.732Z,0.00
2018-03-17T04:02:19.613Z,0.00
2018-03-17T04:03:19.510Z,0.00
2018-03-17T04:04:19.398Z,0.00
2018-03-17T04:05:19.294Z,0.00
2018-03-17T04:06:19.179Z,0.00
2018-03-17T04:07:19.086Z,0.00
2018-03-17T04:08:18.959Z,0.00
2018-03-17T04:09:18.856Z,0.00
2018-03-17T04:10:18.736Z,0.00
2018-03-17T04:11:18.634Z,0.00
2018-03-17T04:12:18.771Z,0.00
2018-03-17T04:13:18.406Z,0.00
2018-03-17T04:14:18.297Z,0.00
2018-03-17T04:15:18.181Z,0.00
2018-03-17T04:16:18.071Z,0.00
2018-03-17T04:17:17.967Z,0.00
2018-03-17T04:18:17.850Z,0.00
2018-03-17T04:19:17.744Z,0.00
2018-03-17T04:20:17.629Z,0.00
2018-03-17T04:21:17.528Z,0.00
2018-03-17T04:22:17.408Z,0.00
2018-03-17T04:23:17.293Z,0.00
2018-03-17T04:24:17.194Z,0.00
2018-03-17T04:25:17.073Z,0.00
2018-03-17T04:26:16.970Z,0.00
2018-03-17T04:27:17.155Z,0.00
2018-03-17T04:28:16.753Z,0.00
2018-03-17T04:29:16.640Z,0.00
2018-03-17T04:30:16.523Z,0.00
2018-03-17T04:31:16.437Z,0.00
2018-03-17T04:32:16.310Z,0.00
2018-03-17T04:33:16.197Z,0.00
2018-03-17T04:34:16.085Z,0.00
2018-03-17T04:35:15.978Z,0.00
2018-03-17T04:36:15.878Z,0.00
2018-03-17T04:37:15.748Z,0.00
2018-03-17T04:38:15.644Z,0.00
2018-03-17T04:39:15.532Z,0.00
2018-03-17T04:40:15.424Z,0.00
2018-03-17T04:41:15.309Z,0.00
2018-03-17T04:42:15.196Z,0.00
2018-03-17T04:43:15.092Z,0.00
2018-03-17T04:44:14.974Z,0.00
2018-03-17T04:45:14.874Z,0.00
2018-03-17T04:46:14.755Z,0.00
2018-03-17T04:47:14.650Z,0.00
2018-03-17T04:48:14.534Z,4.00
2018-03-17T04:49:14.429Z,4.00
2018-03-17T04:50:14.323Z,0.00
2018-03-17T04:51:14.228Z,4.00
2018-03-17T04:52:14.100Z,4.00
2018-03-17T04:53:13.981Z,4.00
2018-03-17T04:54:13.868Z,4.00
2018-03-17T04:55:13.766Z,8.00
2018-03-17T04:56:13.650Z,8.00
2018-03-17T04:57:13.792Z,8.00
2018-03-17T04:58:13.427Z,8.00
2018-03-17T04:59:13.326Z,12.00
2018-03-17T05:00:13.207Z,16.00
2018-03-17T05:01:13.092Z,16.00
2018-03-17T05:02:12.993Z,20.00
2018-03-17T05:03:12.876Z,24.00
2018-03-17T05:04:12.773Z,28.00
2018-03-17T05:05:12.658Z,32.00
2018-03-17T05:06:12.543Z,40.00
2018-03-17T05:07:12.439Z,48.00
2018-03-17T05:08:12.331Z,52.00
2018-03-17T05:09:12.220Z,60.00
2018-03-17T05:10:12.100Z,68.00
2018-03-17T05:11:11.995Z,76.00
2018-03-17T05:12:11.883Z,88.00
2018-03-17T05:13:11.769Z,96.00
2018-03-17T05:14:11.663Z,108.00
2018-03-17T05:15:11.545Z,124.00
2018-03-17T05:16:11.442Z,140.00
2018-03-17T05:17:11.333Z,152.00
2018-03-17T05:18:11.217Z,168.00
2018-03-17T05:19:11.108Z,184.00
2018-03-17T05:20:10.991Z,196.00
2018-03-17T05:21:10.889Z,216.00
2018-03-17T05:22:11.021Z,232.00
2018-03-17T05:23:10.673Z,252.00
2018-03-17T05:24:10.557Z,272.00
2018-03-17T05:25:10.437Z,300.00
2018-03-17T05:26:10.334Z,320.00
2018-03-17T05:27:10.221Z,344.00
2018-03-17T05:28:10.120Z,376.00
2018-03-17T05:29:10.000Z,408.00
2018-03-17T05:30:09.899Z,436.00
2018-03-17T05:31:09.779Z,468.00
2018-03-17T05:32:09.915Z,512.00
2018-03-17T05:33:09.561Z,552.00
2018-03-17T05:34:09.456Z,592.00
2018-03-17T05:35:09.343Z,632.00
2018-03-17T05:36:09.229Z,676.00
2018-03-17T05:37:09.111Z,720.00
2018-03-17T05:38:09.006Z,756.00
2018-03-17T05:39:08.889Z,788.00
2018-03-17T05:40:08.791Z,812.00
2018-03-17T05:41:08.671Z,848.00
2018-03-17T05:42:08.867Z,896.00
2018-03-17T05:43:08.456Z,944.00
2018-03-17T05:44:08.348Z,996.00
2018-03-17T05:45:08.234Z,1044.00
2018-03-17T05:46:08.118Z,1084.00
2018-03-17T05:47:08.014Z,1128.00
2018-03-17T05:48:07.897Z,1196.00
2018-03-17T05:49:07.804Z,1264.00
2018-03-17T05:50:07.683Z,1324.00
2018-03-17T05:51:07.569Z,1392.00
2018-03-17T05:52:07.459Z,1460.00
2018-03-17T05:53:07.345Z,1524.00
2018-03-17T05:54:07.244Z,1576.00
2018-03-17T05:55:07.125Z,1628.00
2018-03-17T05:56:07.022Z,1684.00
2018-03-17T05:57:06.914Z,1760.00
2018-03-17T05:58:06.790Z,1852.00
2018-03-17T05:59:06.687Z,1936.00
2018-03-17T06:00:06.571Z,2036.00
2018-03-17T06:01:06.468Z,2124.00
2018-03-17T06:02:06.352Z,2220.00
2018-03-17T06:03:06.247Z,2316.00
2018-03-17T06:04:06.139Z,2424.00
2018-03-17T06:05:06.017Z,2512.00
2018-03-17T06:06:05.912Z,2504.00
2018-03-17T06:07:06.001Z,2564.00
2018-03-17T06:08:05.699Z,2724.00
2018-03-17T06:09:05.582Z,2828.00
2018-03-17T06:10:05.481Z,2828.00
2018-03-17T06:11:05.360Z,2856.00
2018-03-17T06:12:05.245Z,2924.00
2018-03-17T06:13:05.141Z,2996.00
2018-03-17T06:14:05.045Z,3060.00
2018-03-17T06:15:04.921Z,3104.00
2018-03-17T06:16:04.804Z,3180.00
2018-03-17T06:17:04.705Z,3272.00
2018-03-17T06:18:04.586Z,3352.00
2018-03-17T06:19:04.483Z,3404.00
2018-03-17T06:20:04.366Z,3452.00
2018-03-17T06:21:04.263Z,3480.00
2018-03-17T06:22:04.148Z,3540.00
2018-03-17T06:23:04.038Z,3644.00
2018-03-17T06:24:03.967Z,3772.00
2018-03-17T06:25:03.813Z,3920.00
2018-03-17T06:26:03.716Z,4052.00
2018-03-17T06:27:03.849Z,4104.00
2018-03-17T06:28:03.490Z,4124.00
2018-03-17T06:29:03.374Z,4204.00
2018-03-17T06:30:03.271Z,4320.00
2018-03-17T06:31:03.159Z,4340.00
2018-03-17T06:32:03.056Z,4404.00
2018-03-17T06:33:02.936Z,4452.00
2018-03-17T06:34:02.825Z,4520.00
2018-03-17T06:35:02.732Z,4572.00
2018-03-17T06:36:02.606Z,4616.00
2018-03-17T06:37:02.498Z,4656.00
2018-03-17T06:38:02.386Z,4624.00
2018-03-17T06:39:02.291Z,4504.00
2018-03-17T06:40:02.170Z,4368.00
2018-03-17T06:41:02.063Z,4296.00
2018-03-17T06:42:01.949Z,4196.00
2018-03-17T06:43:01.840Z,4124.00
2018-03-17T06:44:01.725Z,4100.00
2018-03-17T06:45:01.610Z,4052.00
2018-03-17T06:46:01.509Z,3940.00
2018-03-17T06:47:01.390Z,3856.00
2018-03-17T06:48:01.292Z,3744.00
2018-03-17T06:49:01.174Z,3680.00
2018-03-17T06:50:01.124Z,3776.00
2018-03-17T06:51:00.951Z,3824.00
2018-03-17T06:52:01.148Z,3800.00
2018-03-17T06:53:00.731Z,3872.00
2018-03-17T06:54:00.633Z,3912.00
2018-03-17T06:55:00.518Z,3748.00
2018-03-17T06:56:00.402Z,3624.00
2018-03-17T06:57:00.293Z,3668.00
2018-03-17T06:58:00.179Z,3820.00
2018-03-17T06:59:00.079Z,4020.00
2018-03-17T06:59:59.961Z,3952.00
2018-03-17T07:00:59.855Z,3880.00
2018-03-17T07:01:59.741Z,3904.00
2018-03-17T07:02:59.641Z,3848.00
2018-03-17T07:03:59.523Z,3792.00
2018-03-17T07:04:59.411Z,3732.00
2018-03-17T07:05:59.308Z,3668.00
2018-03-17T07:06:59.249Z,3636.00
2018-03-17T07:07:59.089Z,3632.00
2018-03-17T07:08:58.968Z,3760.00
2018-03-17T07:09:58.863Z,3764.00
2018-03-17T07:10:58.747Z,3728.00
2018-03-17T07:11:58.647Z,3820.00
2018-03-17T07:12:58.535Z,3904.00
2018-03-17T07:13:58.417Z,3856.00
2018-03-17T07:14:58.310Z,3956.00
2018-03-17T07:15:58.194Z,4120.00
2018-03-17T07:16:58.090Z,4360.00
2018-03-17T07:17:57.974Z,4476.00
2018-03-17T07:18:57.871Z,4636.00
2018-03-17T07:19:57.756Z,4664.00
2018-03-17T07:20:57.644Z,4708.00
2018-03-17T07:21:57.791Z,4752.00
2018-03-17T07:22:57.425Z,4848.00
2018-03-17T07:23:57.317Z,5144.00
2018-03-17T07:24:57.202Z,5184.00
2018-03-17T07:25:57.103Z,4880.00
2018-03-17T07:26:56.987Z,4824.00
2018-03-17T07:27:56.883Z,4884.00
2018-03-17T07:28:56.767Z,5100.00
2018-03-17T07:29:56.649Z,5332.00
2018-03-17T07:30:56.548Z,5268.00
2018-03-17T07:31:56.432Z,5052.00
2018-03-17T07:32:56.328Z,4968.00
2018-03-17T07:33:56.210Z,5012.00
2018-03-17T07:34:56.109Z,4900.00
2018-03-17T07:35:55.994Z,4984.00
2018-03-17T07:36:55.885Z,5168.00
2018-03-17T07:37:55.815Z,5380.00
2018-03-17T07:38:55.667Z,5664.00
2018-03-17T07:39:55.551Z,6144.00
2018-03-17T07:40:55.436Z,6380.00
2018-03-17T07:41:55.334Z,6412.00
2018-03-17T07:42:55.217Z,6320.00
2018-03-17T07:43:55.113Z,6188.00
2018-03-17T07:44:54.998Z,6372.00
2018-03-17T07:45:54.898Z,6596.00
2018-03-17T07:46:54.782Z,6792.00
2018-03-17T07:47:54.678Z,7060.00
2018-03-17T07:48:54.560Z,6952.00
2018-03-17T07:49:54.449Z,6356.00
2018-03-17T07:50:54.341Z,6216.00
2018-03-17T07:51:54.226Z,6328.00
2018-03-17T07:52:54.121Z,6368.00
2018-03-17T07:53:54.006Z,6580.00
2018-03-17T07:54:53.906Z,6928.00
2018-03-17T07:55:53.791Z,6880.00
2018-03-17T07:56:53.686Z,6584.00
2018-03-17T07:57:53.568Z,6692.00
2018-03-17T07:58:53.467Z,6704.00
2018-03-17T07:59:53.353Z,6664.00
2018-03-17T08:00:53.237Z,6520.00
2018-03-17T08:01:53.128Z,6604.00
2018-03-17T08:02:53.014Z,6580.00
2018-03-17T08:03:52.913Z,6668.00
2018-03-17T08:04:52.798Z,7076.00
2018-03-17T08:05:52.743Z,7456.00
2018-03-17T08:06:52.574Z,7428.00
2018-03-17T08:07:52.478Z,7280.00
2018-03-17T08:08:52.404Z,7472.00
2018-03-17T08:09:52.255Z,7780.00
2018-03-17T08:10:52.137Z,8092.00
2018-03-17T08:11:52.038Z,8392.00
2018-03-17T08:12:51.918Z,8508.00
2018-03-17T08:13:51.813Z,8408.00
2018-03-17T08:14:51.702Z,8348.00
2018-03-17T08:15:51.599Z,8372.00
2018-03-17T08:16:51.484Z,8492.00
2018-03-17T08:17:51.381Z,8452.00
2018-03-17T08:18:51.264Z,8232.00
2018-03-17T08:19:51.156Z,8196.00
2018-03-17T08:20:51.047Z,8288.00
2018-03-17T08:21:50.937Z,8744.00
2018-03-17T08:22:50.825Z,9344.00
2018-03-17T08:23:50.724Z,10076.00
2018-03-17T08:24:50.608Z,10496.00
2018-03-17T08:25:50.503Z,10604.00
2018-03-17T08:26:50.396Z,10824.00
2018-03-17T08:27:50.280Z,10788.00
2018-03-17T08:28:50.163Z,11172.00
2018-03-17T08:29:50.065Z,11356.00
2018-03-17T08:30:49.946Z,11568.00
2018-03-17T08:31:49.843Z,11248.00
2018-03-17T08:32:49.729Z,11244.00
2018-03-17T08:33:49.625Z,10932.00
2018-03-17T08:34:49.511Z,11100.00
2018-03-17T08:35:49.404Z,10940.00
2018-03-17T08:36:49.291Z,11136.00
2018-03-17T08:37:49.186Z,10560.00
2018-03-17T08:38:49.076Z,10520.00
2018-03-17T08:39:48.970Z,10368.00
2018-03-17T08:40:48.852Z,10520.00
2018-03-17T08:41:48.996Z,10860.00
2018-03-17T08:42:48.634Z,11644.00
2018-03-17T08:43:48.531Z,12256.00
2018-03-17T08:44:48.410Z,12932.00
2018-03-17T08:45:48.313Z,13180.00
2018-03-17T08:46:48.195Z,13232.00
2018-03-17T08:47:48.092Z,13560.00
2018-03-17T08:48:47.978Z,13860.00
2018-03-17T08:49:47.870Z,14200.00
2018-03-17T08:50:47.766Z,14976.00
2018-03-17T08:51:47.650Z,15332.00
2018-03-17T08:52:47.551Z,15996.00
2018-03-17T08:53:47.435Z,16496.00
2018-03-17T08:54:47.332Z,17024.00
2018-03-17T08:55:47.217Z,17088.00
2018-03-17T08:56:47.110Z,17120.00
2018-03-17T08:57:46.995Z,17088.00
2018-03-17T08:58:46.948Z,17024.00
2018-03-17T08:59:46.790Z,16720.00
2018-03-17T09:00:46.675Z,16580.00
2018-03-17T09:01:46.569Z,16376.00
2018-03-17T09:02:46.456Z,16152.00
2018-03-17T09:03:46.349Z,15948.00
2018-03-17T09:04:46.254Z,15744.00
2018-03-17T09:05:46.148Z,15652.00
2018-03-17T09:06:46.029Z,15632.00
2018-03-17T09:07:45.910Z,16168.00
2018-03-17T09:08:45.814Z,16500.00
2018-03-17T09:09:45.704Z,16792.00
2018-03-17T09:10:45.626Z,17088.00
2018-03-17T09:11:45.488Z,16760.00
2018-03-17T09:12:45.372Z,16652.00
2018-03-17T09:13:45.279Z,16324.00
2018-03-17T09:14:45.165Z,16076.00
2018-03-17T09:15:45.046Z,16028.00
2018-03-17T09:16:44.943Z,16032.00
2018-03-17T09:17:44.828Z,16164.00
2018-03-17T09:18:44.737Z,16260.00
2018-03-17T09:19:44.620Z,16144.00
2018-03-17T09:20:44.508Z,16216.00
2018-03-17T09:21:44.405Z,16452.00
2018-03-17T09:22:44.299Z,16752.00
2018-03-17T09:23:44.185Z,16760.00
2018-03-17T09:24:44.083Z,16696.00
2018-03-17T09:25:43.967Z,16748.00
2018-03-17T09:26:43.860Z,16600.00
2018-03-17T09:27:43.761Z,16860.00
2018-03-17T09:28:43.640Z,17792.00
2018-03-17T09:29:43.539Z,17760.00
2018-03-17T09:30:43.438Z,17696.00
2018-03-17T09:31:43.323Z,17440.00
2018-03-17T09:32:43.216Z,16984.00
2018-03-17T09:33:43.112Z,16796.00
2018-03-17T09:34:43.057Z,16508.00
2018-03-17T09:35:42.893Z,16604.00
2018-03-17T09:36:42.789Z,16940.00
2018-03-17T09:37:42.673Z,17408.00
2018-03-17T09:38:42.572Z,17568.00
2018-03-17T09:39:42.471Z,17664.00
2018-03-17T09:40:42.350Z,17664.00
2018-03-17T09:41:42.248Z,17472.00
2018-03-17T09:42:42.148Z,17096.00
2018-03-17T09:43:42.029Z,16660.00
2018-03-17T09:44:41.925Z,16224.00
2018-03-17T09:45:41.821Z,15744.00
2018-03-17T09:46:41.710Z,15668.00
2018-03-17T09:47:41.605Z,14972.00
2018-03-17T09:48:41.503Z,14716.00
2018-03-17T09:49:41.383Z,14736.00
2018-03-17T09:50:41.280Z,14908.00
2018-03-17T09:51:41.181Z,15036.00
2018-03-17T09:52:41.093Z,15396.00
2018-03-17T09:53:40.959Z,15092.00
2018-03-17T09:54:40.855Z,14852.00
2018-03-17T09:55:40.742Z,14644.00
2018-03-17T09:56:40.643Z,14548.00
2018-03-17T09:57:40.536Z,14876.00
2018-03-17T09:58:40.417Z,15308.00
2018-03-17T09:59:40.315Z,15628.00
2018-03-17T10:00:40.210Z,16240.00
2018-03-17T10:01:40.094Z,16600.00
2018-03-17T10:02:39.991Z,17280.00
2018-03-17T10:03:39.887Z,17952.00
2018-03-17T10:04:39.772Z,18304.00
2018-03-17T10:05:39.667Z,18176.00
2018-03-17T10:06:39.575Z,17952.00
2018-03-17T10:07:39.454Z,17280.00
2018-03-17T10:08:39.346Z,16584.00
2018-03-17T10:09:39.247Z,16208.00
2018-03-17T10:10:39.127Z,14740.00
2018-03-17T10:11:39.023Z,16572.00
2018-03-17T10:12:38.924Z,17248.00
2018-03-17T10:13:38.805Z,16608.00
2018-03-17T10:14:38.701Z,17760.00
2018-03-17T10:15:38.598Z,18464.00
2018-03-17T10:16:38.485Z,18304.00
2018-03-17T10:17:38.381Z,18336.00
2018-03-17T10:18:38.274Z,18624.00
2018-03-17T10:19:38.159Z,18848.00
2018-03-17T10:20:38.059Z,18688.00
2018-03-17T10:21:37.956Z,17600.00
2018-03-17T10:22:37.841Z,16840.00
2018-03-17T10:23:37.763Z,16712.00
2018-03-17T10:24:37.634Z,15688.00
2018-03-17T10:25:37.516Z,16380.00
2018-03-17T10:26:37.412Z,16032.00
2018-03-17T10:27:37.308Z,14956.00
2018-03-17T10:28:37.195Z,14416.00
2018-03-17T10:29:37.091Z,14172.00
2018-03-17T10:30:36.989Z,13520.00
2018-03-17T10:31:36.882Z,13640.00
2018-03-17T10:32:36.770Z,13600.00
2018-03-17T10:33:36.663Z,15056.00
2018-03-17T10:34:36.552Z,16028.00
2018-03-17T10:35:36.449Z,16572.00
2018-03-17T10:36:36.341Z,16496.00
2018-03-17T10:37:36.237Z,16256.00
2018-03-17T10:38:36.125Z,16408.00
2018-03-17T10:39:36.022Z,16268.00
2018-03-17T10:40:35.915Z,15420.00
2018-03-17T10:41:36.052Z,14844.00
2018-03-17T10:42:35.694Z,14604.00
2018-03-17T10:43:35.592Z,15340.00
2018-03-17T10:44:35.477Z,15260.00
2018-03-17T10:45:35.374Z,14404.00
2018-03-17T10:46:35.266Z,14328.00
2018-03-17T10:47:35.157Z,15476.00
2018-03-17T10:48:35.054Z,17144.00
2018-03-17T10:49:34.940Z,17792.00
2018-03-17T10:50:34.832Z,17020.00
2018-03-17T10:51:34.727Z,16224.00
2018-03-17T10:52:34.614Z,17632.00
2018-03-17T10:53:34.512Z,17664.00
2018-03-17T10:54:34.409Z,18048.00
2018-03-17T10:55:34.301Z,18336.00
2018-03-17T10:56:34.185Z,18560.00
2018-03-17T10:57:34.085Z,18112.00
2018-03-17T10:58:33.969Z,19552.00
2018-03-17T10:59:33.862Z,19488.00
2018-03-17T11:00:33.761Z,18784.00
2018-03-17T11:01:33.656Z,18720.00
2018-03-17T11:02:33.542Z,19136.00
2018-03-17T11:03:33.441Z,19488.00
2018-03-17T11:04:33.340Z,18624.00
2018-03-17T11:05:33.221Z,16568.00
2018-03-17T11:06:33.115Z,16300.00
2018-03-17T11:07:33.014Z,17888.00
2018-03-17T11:08:32.896Z,18976.00
2018-03-17T11:09:32.834Z,19360.00
2018-03-17T11:10:32.690Z,18912.00
2018-03-17T11:11:32.586Z,18176.00
2018-03-17T11:12:32.471Z,17408.00
2018-03-17T11:13:32.374Z,16968.00
2018-03-17T11:14:32.265Z,16756.00
2018-03-17T11:15:32.151Z,16700.00
2018-03-17T11:16:32.045Z,16588.00
2018-03-17T11:17:31.941Z,16980.00
2018-03-17T11:18:31.838Z,17568.00
2018-03-17T11:19:31.722Z,17440.00
2018-03-17T11:20:31.618Z,17536.00
2018-03-17T11:21:31.515Z,17536.00
2018-03-17T11:22:31.405Z,17048.00
2018-03-17T11:23:31.296Z,16768.00
2018-03-17T11:24:31.193Z,17256.00
2018-03-17T11:25:31.078Z,16224.00
2018-03-17T11:26:30.978Z,16204.00
2018-03-17T11:27:30.873Z,16240.00
2018-03-17T11:28:30.761Z,16084.00
2018-03-17T11:29:30.652Z,16032.00
2018-03-17T11:30:30.553Z,16076.00
2018-03-17T11:31:30.445Z,16372.00
2018-03-17T11:32:30.336Z,16960.00
2018-03-17T11:33:30.230Z,16468.00
2018-03-17T11:34:30.122Z,16648.00
2018-03-17T11:35:30.006Z,16980.00
2018-03-17T11:36:29.908Z,17344.00
2018-03-17T11:37:29.799Z,16964.00
2018-03-17T11:38:29.684Z,16676.00
2018-03-17T11:39:29.580Z,16208.00
2018-03-17T11:40:29.477Z,16988.00
2018-03-17T11:41:29.363Z,16928.00
2018-03-17T11:42:29.262Z,17376.00
2018-03-17T11:43:29.155Z,17280.00
2018-03-17T11:44:29.040Z,17036.00
2018-03-17T11:45:28.939Z,17600.00
2018-03-17T11:46:28.836Z,18240.00
2018-03-17T11:47:28.729Z,18336.00
2018-03-17T11:48:28.613Z,18272.00
2018-03-17T11:49:28.514Z,17920.00
2018-03-17T11:50:28.411Z,17504.00
2018-03-17T11:51:28.290Z,17020.00
2018-03-17T11:52:28.191Z,16660.00
2018-03-17T11:53:28.085Z,16300.00
2018-03-17T11:54:27.973Z,15220.00
2018-03-17T11:55:27.866Z,14888.00
2018-03-17T11:56:27.768Z,14496.00
2018-03-17T11:57:27.659Z,15036.00
2018-03-17T11:58:27.543Z,15208.00
2018-03-17T11:59:27.440Z,15036.00
2018-03-17T12:00:27.339Z,15516.00
2018-03-17T12:01:27.225Z,15144.00
2018-03-17T12:02:27.118Z,14980.00
2018-03-17T12:03:27.019Z,14636.00
2018-03-17T12:04:26.902Z,13976.00
2018-03-17T12:05:26.798Z,16496.00
2018-03-17T12:06:26.692Z,16156.00
2018-03-17T12:07:26.592Z,16544.00
2018-03-17T12:08:26.477Z,17344.00
2018-03-17T12:09:26.368Z,17824.00
2018-03-17T12:10:26.270Z,18144.00
2018-03-17T12:11:26.151Z,18720.00
2018-03-17T12:12:26.050Z,19328.00
2018-03-17T12:13:25.946Z,19168.00
2018-03-17T12:14:25.840Z,18976.00
2018-03-17T12:15:25.727Z,19104.00
2018-03-17T12:16:25.626Z,19168.00
2018-03-17T12:17:25.521Z,19232.00
2018-03-17T12:18:25.403Z,19200.00
2018-03-17T12:19:25.343Z,18816.00
2018-03-17T12:20:25.197Z,17856.00
2018-03-17T12:21:25.091Z,17504.00
2018-03-17T12:22:24.982Z,17248.00
2018-03-17T12:23:24.873Z,17344.00
2018-03-17T12:24:24.774Z,17408.00
2018-03-17T12:25:24.667Z,17440.00
2018-03-17T12:26:24.552Z,17568.00